createdAt,value
2019-05-19T00:00:08.418Z,12.29
2019-05-19T00:01:08.256Z,12.28
2019-05-19T00:02:08.257Z,12.27
2019-05-19T00:03:08.256Z,12.27
2019-05-19T00:04:08.261Z,12.30
2019-05-19T00:05:08.257Z,12.31
2019-05-19T00:06:08.256Z,12.31
2019-05-19T00:07:08.251Z,12.31
2019-05-19T00:08:08.249Z,12.31
2019-05-19T00:09:08.269Z,12.29
2019-05-19T00:10:08.246Z,12.27
2019-05-19T00:11:08.280Z,12.24
2019-05-19T00:12:08.251Z,12.22
2019-05-19T00:13:08.251Z,12.20
2019-05-19T00:14:08.240Z,12.20
2019-05-19T00:15:08.253Z,12.22
2019-05-19T00:16:08.247Z,12.27
2019-05-19T00:17:08.251Z,12.28
2019-05-19T00:18:08.245Z,12.27
2019-05-19T00:19:08.247Z,12.26
2019-05-19T00:20:08.247Z,12.23
2019-05-19T00:21:08.242Z,12.20
2019-05-19T00:22:08.243Z,12.15
2019-05-19T00:23:08.240Z,12.11
2019-05-19T00:24:08.245Z,12.09
2019-05-19T00:25:08.242Z,12.08
2019-05-19T00:26:08.249Z,12.06
2019-05-19T00:27:08.238Z,12.07
2019-05-19T00:28:08.252Z,12.08
2019-05-19T00:29:08.236Z,12.09
2019-05-19T00:30:08.244Z,12.09
2019-05-19T00:31:08.236Z,12.05
2019-05-19T00:32:08.236Z,12.03
2019-05-19T00:33:08.236Z,12.03
2019-05-19T00:34:08.234Z,12.02
2019-05-19T00:35:08.243Z,12.01
2019-05-19T00:36:08.240Z,12.00
2019-05-19T00:37:08.237Z,11.96
2019-05-19T00:38:08.244Z,11.94
2019-05-19T00:39:08.240Z,11.91
2019-05-19T00:40:08.237Z,11.87
2019-05-19T00:41:08.231Z,11.84
2019-05-19T00:42:08.229Z,11.82
2019-05-19T00:43:08.230Z,11.83
2019-05-19T00:44:08.229Z,11.84
2019-05-19T00:45:08.236Z,11.82
2019-05-19T00:46:08.232Z,11.80
2019-05-19T00:47:08.228Z,11.78
2019-05-19T00:48:08.225Z,11.78
2019-05-19T00:49:08.226Z,11.77
2019-05-19T00:50:08.238Z,11.76
2019-05-19T00:51:08.232Z,11.75
2019-05-19T00:52:08.224Z,11.74
2019-05-19T00:53:08.226Z,11.74
2019-05-19T00:54:08.227Z,11.74
2019-05-19T00:55:08.225Z,11.72
2019-05-19T00:56:08.220Z,11.69
2019-05-19T00:57:08.221Z,11.66
2019-05-19T00:58:08.225Z,11.63
2019-05-19T00:59:08.225Z,11.61
2019-05-19T01:00:08.236Z,11.59
2019-05-19T01:01:08.219Z,11.58
2019-05-19T01:02:08.218Z,11.58
2019-05-19T01:03:08.223Z,11.56
2019-05-19T01:04:08.223Z,11.54
2019-05-19T01:05:08.228Z,11.56
2019-05-19T01:06:08.263Z,11.56
2019-05-19T01:07:08.218Z,11.59
2019-05-19T01:08:08.213Z,11.62
2019-05-19T01:09:08.214Z,11.67
2019-05-19T01:10:08.226Z,11.70
2019-05-19T01:11:08.222Z,11.72
2019-05-19T01:12:08.268Z,11.73
2019-05-19T01:13:08.214Z,11.74
2019-05-19T01:14:08.241Z,11.76
2019-05-19T01:15:08.222Z,11.77
2019-05-19T01:16:08.210Z,11.78
2019-05-19T01:17:08.209Z,11.77
2019-05-19T01:18:08.209Z,11.76
2019-05-19T01:19:08.214Z,11.75
2019-05-19T01:20:08.235Z,11.72
2019-05-19T01:21:08.209Z,11.72
2019-05-19T01:22:08.208Z,11.71
2019-05-19T01:23:08.210Z,11.69
2019-05-19T01:24:08.215Z,11.69
2019-05-19T01:25:08.205Z,11.71
2019-05-19T01:26:08.225Z,11.71
2019-05-19T01:27:08.205Z,11.72
2019-05-19T01:28:08.207Z,11.72
2019-05-19T01:29:08.200Z,11.71
2019-05-19T01:30:08.209Z,11.67
2019-05-19T01:31:08.213Z,11.65
2019-05-19T01:32:08.199Z,11.62
2019-05-19T01:33:08.199Z,11.63
2019-05-19T01:34:08.199Z,11.62
2019-05-19T01:35:08.202Z,11.61
2019-05-19T01:36:08.201Z,11.63
2019-05-19T01:37:08.197Z,11.65
2019-05-19T01:38:08.212Z,11.64
2019-05-19T01:39:08.206Z,11.63
2019-05-19T01:40:08.205Z,11.61
2019-05-19T01:41:08.204Z,11.59
2019-05-19T01:42:08.194Z,11.59
2019-05-19T01:43:08.195Z,11.60
2019-05-19T01:44:08.205Z,11.63
2019-05-19T01:45:08.199Z,11.66
2019-05-19T01:46:08.201Z,11.64
2019-05-19T01:47:08.192Z,11.63
2019-05-19T01:48:08.195Z,11.61
2019-05-19T01:49:08.190Z,11.57
2019-05-19T01:50:17.598Z,11.53
2019-05-19T01:51:08.192Z,11.48
2019-05-19T01:52:08.196Z,11.46
2019-05-19T01:53:08.189Z,11.44
2019-05-19T01:54:08.189Z,11.39
2019-05-19T01:55:08.191Z,11.37
2019-05-19T01:56:08.196Z,11.35
2019-05-19T01:57:08.200Z,11.35
2019-05-19T01:58:08.185Z,11.34
2019-05-19T01:59:08.186Z,11.33
2019-05-19T02:00:08.186Z,11.34
2019-05-19T02:01:08.196Z,11.32
2019-05-19T02:02:08.191Z,11.32
2019-05-19T02:03:08.184Z,11.33
2019-05-19T02:04:08.187Z,11.34
2019-05-19T02:05:08.183Z,11.32
2019-05-19T02:06:08.207Z,11.28
2019-05-19T02:07:08.184Z,11.24
2019-05-19T02:08:08.181Z,11.19
2019-05-19T02:09:08.176Z,11.15
2019-05-19T02:10:08.190Z,11.10
2019-05-19T02:11:08.178Z,11.06
2019-05-19T02:12:08.180Z,11.03
2019-05-19T02:13:08.178Z,11.00
2019-05-19T02:14:08.179Z,10.97
2019-05-19T02:15:08.177Z,11.03
2019-05-19T02:16:08.175Z,11.05
2019-05-19T02:17:08.200Z,11.02
2019-05-19T02:18:08.173Z,11.03
2019-05-19T02:19:08.172Z,11.05
2019-05-19T02:20:08.171Z,11.05
2019-05-19T02:21:08.178Z,11.05
2019-05-19T02:22:08.175Z,11.07
2019-05-19T02:23:08.170Z,11.08
2019-05-19T02:24:08.180Z,11.14
2019-05-19T02:25:08.171Z,11.16
2019-05-19T02:26:08.168Z,11.16
2019-05-19T02:27:08.180Z,11.17
2019-05-19T02:28:08.173Z,11.17
2019-05-19T02:29:08.167Z,11.16
2019-05-19T02:30:08.166Z,11.14
2019-05-19T02:31:08.170Z,11.16
2019-05-19T02:32:08.176Z,11.16
2019-05-19T02:33:08.163Z,11.16
2019-05-19T02:34:08.166Z,11.14
2019-05-19T02:35:08.164Z,11.11
2019-05-19T02:36:08.161Z,11.08
2019-05-19T02:37:08.169Z,11.07
2019-05-19T02:38:08.166Z,11.04
2019-05-19T02:39:08.170Z,11.01
2019-05-19T02:40:08.161Z,10.99
2019-05-19T02:41:08.161Z,10.98
2019-05-19T02:42:08.175Z,10.95
2019-05-19T02:43:08.162Z,10.93
2019-05-19T02:44:08.161Z,10.94
2019-05-19T02:45:08.163Z,11.01
2019-05-19T02:46:08.158Z,11.04
2019-05-19T02:47:08.164Z,11.06
2019-05-19T02:48:08.156Z,11.11
2019-05-19T02:49:08.153Z,11.15
2019-05-19T02:50:08.156Z,11.16
2019-05-19T02:51:08.168Z,11.16
2019-05-19T02:52:08.164Z,11.17
2019-05-19T02:53:08.153Z,11.20
2019-05-19T02:54:08.152Z,11.17
2019-05-19T02:55:08.152Z,11.14
2019-05-19T02:56:08.152Z,11.09
2019-05-19T02:57:08.162Z,11.05
2019-05-19T02:58:08.154Z,11.02
2019-05-19T02:59:08.151Z,10.99
2019-05-19T03:00:08.202Z,10.96
2019-05-19T03:01:08.155Z,10.94
2019-05-19T03:02:08.158Z,10.94
2019-05-19T03:03:08.147Z,10.93
2019-05-19T03:04:08.148Z,10.91
2019-05-19T03:05:08.151Z,10.89
2019-05-19T03:06:08.151Z,10.86
2019-05-19T03:07:08.162Z,10.87
2019-05-19T03:08:08.153Z,10.88
2019-05-19T03:09:08.197Z,10.86
2019-05-19T03:10:08.145Z,10.86
2019-05-19T03:11:08.152Z,10.84
2019-05-19T03:12:08.170Z,10.84
2019-05-19T03:13:08.149Z,10.84
2019-05-19T03:14:08.143Z,10.83
2019-05-19T03:15:08.147Z,10.80
2019-05-19T03:16:08.137Z,10.78
2019-05-19T03:17:08.158Z,10.76
2019-05-19T03:18:08.143Z,10.75
2019-05-19T03:19:08.137Z,10.74
2019-05-19T03:20:08.139Z,10.73
2019-05-19T03:21:11.465Z,10.72
2019-05-19T03:22:08.135Z,10.71
2019-05-19T03:23:08.155Z,10.70
2019-05-19T03:24:08.137Z,10.68
2019-05-19T03:25:08.139Z,10.68
2019-05-19T03:26:08.134Z,10.65
2019-05-19T03:27:08.135Z,10.64
2019-05-19T03:28:08.136Z,10.64
2019-05-19T03:29:08.133Z,10.63
2019-05-19T03:30:08.136Z,10.62
2019-05-19T03:31:08.132Z,10.60
2019-05-19T03:32:12.385Z,10.58
2019-05-19T03:33:08.136Z,10.56
2019-05-19T03:34:08.132Z,10.56
2019-05-19T03:35:08.131Z,10.55
2019-05-19T03:36:08.127Z,10.59
2019-05-19T03:37:08.129Z,10.64
2019-05-19T03:38:08.144Z,10.70
2019-05-19T03:39:08.127Z,10.76
2019-05-19T03:40:08.126Z,10.80
2019-05-19T03:41:08.128Z,10.81
2019-05-19T03:42:10.418Z,10.79
2019-05-19T03:43:08.132Z,10.77
2019-05-19T03:44:08.128Z,10.78
2019-05-19T03:45:08.123Z,10.79
2019-05-19T03:46:08.122Z,10.79
2019-05-19T03:47:08.123Z,10.78
2019-05-19T03:48:08.124Z,10.80
2019-05-19T03:49:08.122Z,10.81
2019-05-19T03:50:08.120Z,10.80
2019-05-19T03:51:08.129Z,10.80
2019-05-19T03:52:08.119Z,10.80
2019-05-19T03:53:08.132Z,10.81
2019-05-19T03:54:08.126Z,10.82
2019-05-19T03:55:08.114Z,10.84
2019-05-19T03:56:08.120Z,10.86
2019-05-19T03:57:08.114Z,10.87
2019-05-19T03:58:08.401Z,10.88
2019-05-19T03:59:08.115Z,10.90
2019-05-19T04:00:08.113Z,10.91
2019-05-19T04:01:08.113Z,10.94
2019-05-19T04:02:08.121Z,10.99
2019-05-19T04:03:08.114Z,11.01
2019-05-19T04:04:08.120Z,11.01
2019-05-19T04:05:08.134Z,11.02
2019-05-19T04:06:08.109Z,11.01
2019-05-19T04:07:08.111Z,11.02
2019-05-19T04:08:08.106Z,11.02
2019-05-19T04:09:08.115Z,11.05
2019-05-19T04:10:08.113Z,11.08
2019-05-19T04:11:08.122Z,11.11
2019-05-19T04:12:08.107Z,11.13
2019-05-19T04:13:08.115Z,11.15
2019-05-19T04:14:08.109Z,11.16
2019-05-19T04:15:08.105Z,11.19
2019-05-19T04:16:08.108Z,11.22
2019-05-19T04:17:08.109Z,11.24
2019-05-19T04:18:08.107Z,11.26
2019-05-19T04:19:08.128Z,11.28
2019-05-19T04:20:08.111Z,11.29
2019-05-19T04:21:08.102Z,11.30
2019-05-19T04:22:08.101Z,11.31
2019-05-19T04:23:08.108Z,11.34
2019-05-19T04:24:08.102Z,11.35
2019-05-19T04:25:08.102Z,11.36
2019-05-19T04:26:08.101Z,11.37
2019-05-19T04:27:08.103Z,11.41
2019-05-19T04:28:08.100Z,11.44
2019-05-19T04:29:08.101Z,11.47
2019-05-19T04:30:08.096Z,11.47
2019-05-19T04:31:08.100Z,11.48
2019-05-19T04:32:08.094Z,11.48
2019-05-19T04:33:08.100Z,11.49
2019-05-19T04:34:08.105Z,11.48
2019-05-19T04:35:08.093Z,11.50
2019-05-19T04:36:08.099Z,11.50
2019-05-19T04:37:08.093Z,11.52
2019-05-19T04:38:08.090Z,11.52
2019-05-19T04:39:08.103Z,11.53
2019-05-19T04:40:08.091Z,11.56
2019-05-19T04:41:08.099Z,11.58
2019-05-19T04:42:08.089Z,11.60
2019-05-19T04:43:08.094Z,11.61
2019-05-19T04:44:08.108Z,11.62
2019-05-19T04:45:08.091Z,11.61
2019-05-19T04:46:08.087Z,11.59
2019-05-19T04:47:08.089Z,11.60
2019-05-19T04:48:09.693Z,11.60
2019-05-19T04:49:08.088Z,11.62
2019-05-19T04:50:08.092Z,11.62
2019-05-19T04:51:08.090Z,11.63
2019-05-19T04:52:08.086Z,11.65
2019-05-19T04:53:08.082Z,11.67
2019-05-19T04:54:08.083Z,11.69
2019-05-19T04:55:08.090Z,11.70
2019-05-19T04:56:08.081Z,11.73
2019-05-19T04:57:08.084Z,11.74
2019-05-19T04:58:08.089Z,11.75
2019-05-19T04:59:08.080Z,11.76
2019-05-19T05:00:08.088Z,11.79
2019-05-19T05:01:08.081Z,11.80
2019-05-19T05:02:08.079Z,11.83
2019-05-19T05:03:08.085Z,11.85
2019-05-19T05:04:08.077Z,11.88
2019-05-19T05:05:08.078Z,11.89
2019-05-19T05:06:08.075Z,11.92
2019-05-19T05:07:08.075Z,11.94
2019-05-19T05:08:08.074Z,11.96
2019-05-19T05:09:08.077Z,11.98
2019-05-19T05:10:08.084Z,12.00
2019-05-19T05:11:08.076Z,12.00
2019-05-19T05:12:08.069Z,11.99
2019-05-19T05:13:08.073Z,11.99
2019-05-19T05:14:08.069Z,12.01
2019-05-19T05:15:08.079Z,12.02
2019-05-19T05:16:08.079Z,12.04
2019-05-19T05:17:08.084Z,12.04
2019-05-19T05:18:08.068Z,12.07
2019-05-19T05:19:08.067Z,12.09
2019-05-19T05:20:08.093Z,12.12
2019-05-19T05:21:08.066Z,12.12
2019-05-19T05:22:21.341Z,12.15
2019-05-19T05:23:08.067Z,12.20
2019-05-19T05:24:08.066Z,12.26
2019-05-19T05:25:08.064Z,12.34
2019-05-19T05:26:08.065Z,12.38
2019-05-19T05:27:08.068Z,12.43
2019-05-19T05:28:08.060Z,12.46
2019-05-19T05:29:08.081Z,12.54
2019-05-19T05:30:08.060Z,12.60
2019-05-19T05:31:08.065Z,12.65
2019-05-19T05:32:08.059Z,12.70
2019-05-19T05:33:08.058Z,12.78
2019-05-19T05:34:08.058Z,12.84
2019-05-19T05:35:08.057Z,12.88
2019-05-19T05:36:08.065Z,12.90
2019-05-19T05:37:08.061Z,12.94
2019-05-19T05:38:08.057Z,13.00
2019-05-19T05:39:08.054Z,13.07
2019-05-19T05:40:08.057Z,13.12
2019-05-19T05:41:08.058Z,13.21
2019-05-19T05:42:08.053Z,13.27
2019-05-19T05:43:08.061Z,13.35
2019-05-19T05:44:08.052Z,13.42
2019-05-19T05:45:08.051Z,13.48
2019-05-19T05:46:08.055Z,13.47
2019-05-19T05:47:08.056Z,13.48
2019-05-19T05:48:08.051Z,13.48
2019-05-19T05:49:08.049Z,13.49
2019-05-19T05:50:08.052Z,13.52
2019-05-19T05:51:08.061Z,13.60
2019-05-19T05:52:08.047Z,13.64
2019-05-19T05:53:08.049Z,13.66
2019-05-19T05:54:08.051Z,13.61
2019-05-19T05:55:08.049Z,13.61
2019-05-19T05:56:08.053Z,13.69
2019-05-19T05:57:08.045Z,13.71
2019-05-19T05:58:08.049Z,13.77
2019-05-19T05:59:08.044Z,13.83
2019-05-19T06:00:08.044Z,13.85
2019-05-19T06:01:08.061Z,13.84
2019-05-19T06:02:08.046Z,13.91
2019-05-19T06:03:08.046Z,14.02
2019-05-19T06:04:08.043Z,14.07
2019-05-19T06:05:08.040Z,14.14
2019-05-19T06:06:08.056Z,14.24
2019-05-19T06:07:08.045Z,14.30
2019-05-19T06:08:08.037Z,14.40
2019-05-19T06:09:08.038Z,14.52
2019-05-19T06:10:08.037Z,14.53
2019-05-19T06:11:08.038Z,14.50
2019-05-19T06:12:08.040Z,14.54
2019-05-19T06:13:08.037Z,14.61
2019-05-19T06:14:08.038Z,14.69
2019-05-19T06:15:08.037Z,14.74
2019-05-19T06:16:08.035Z,14.86
2019-05-19T06:17:08.043Z,14.96
2019-05-19T06:18:08.033Z,15.08
2019-05-19T06:19:08.033Z,15.18
2019-05-19T06:20:08.294Z,15.30
2019-05-19T06:21:08.030Z,15.46
2019-05-19T06:22:08.033Z,15.63
2019-05-19T06:23:08.045Z,15.73
2019-05-19T06:24:08.029Z,15.80
2019-05-19T06:25:08.029Z,15.83
2019-05-19T06:26:08.031Z,15.99
2019-05-19T06:27:08.037Z,16.13
2019-05-19T06:28:08.027Z,16.27
2019-05-19T06:29:08.027Z,16.36
2019-05-19T06:30:08.841Z,16.35
2019-05-19T06:31:08.037Z,16.53
2019-05-19T06:32:08.038Z,16.69
2019-05-19T06:33:08.028Z,16.78
2019-05-19T06:34:08.024Z,16.87
2019-05-19T06:35:08.021Z,16.87
2019-05-19T06:36:08.029Z,16.90
2019-05-19T06:37:08.030Z,16.98
2019-05-19T06:38:08.021Z,17.09
2019-05-19T06:39:08.027Z,17.16
2019-05-19T06:40:08.023Z,17.15
2019-05-19T06:41:08.021Z,17.09
2019-05-19T06:42:08.032Z,16.97
2019-05-19T06:43:08.030Z,16.96
2019-05-19T06:44:08.021Z,16.92
2019-05-19T06:45:08.018Z,16.99
2019-05-19T06:46:08.016Z,17.07
2019-05-19T06:47:08.036Z,17.19
2019-05-19T06:48:08.015Z,17.30
2019-05-19T06:49:08.021Z,17.45
2019-05-19T06:50:08.014Z,17.53
2019-05-19T06:51:08.016Z,17.67
2019-05-19T06:52:08.013Z,17.67
2019-05-19T06:53:14.236Z,17.76
2019-05-19T06:54:08.012Z,17.93
2019-05-19T06:55:08.012Z,18.04
2019-05-19T06:56:08.015Z,18.09
2019-05-19T06:57:08.011Z,18.16
2019-05-19T06:58:08.019Z,18.23
2019-05-19T06:59:08.014Z,18.24
2019-05-19T07:00:08.048Z,18.35
2019-05-19T07:01:08.011Z,18.45
2019-05-19T07:02:08.010Z,18.51
2019-05-19T07:03:08.022Z,18.68
2019-05-19T07:04:08.007Z,18.78
2019-05-19T07:05:08.005Z,18.67
2019-05-19T07:06:08.012Z,18.64
2019-05-19T07:07:08.027Z,18.67
2019-05-19T07:08:08.007Z,18.63
2019-05-19T07:09:08.004Z,18.56
2019-05-19T07:10:08.018Z,18.58
2019-05-19T07:11:08.008Z,18.61
2019-05-19T07:12:08.006Z,18.58
2019-05-19T07:13:08.013Z,18.71
2019-05-19T07:14:08.005Z,18.92
2019-05-19T07:15:08.002Z,19.13
2019-05-19T07:16:08.010Z,19.31
2019-05-19T07:17:08.007Z,19.42
2019-05-19T07:18:08.002Z,19.42
2019-05-19T07:19:07.998Z,19.42
2019-05-19T07:20:07.997Z,19.44
2019-05-19T07:21:07.997Z,19.43
2019-05-19T07:22:07.997Z,19.56
2019-05-19T07:23:08.043Z,19.80
2019-05-19T07:24:07.999Z,19.91
2019-05-19T07:25:07.995Z,19.79
2019-05-19T07:26:07.997Z,19.70
2019-05-19T07:27:07.995Z,19.78
2019-05-19T07:28:07.991Z,19.95
2019-05-19T07:29:08.000Z,20.06
2019-05-19T07:30:08.003Z,20.01
2019-05-19T07:31:07.997Z,20.00
2019-05-19T07:32:07.990Z,20.05
2019-05-19T07:33:07.991Z,20.14
2019-05-19T07:34:07.992Z,20.20
2019-05-19T07:35:07.991Z,20.36
2019-05-19T07:36:07.989Z,20.44
2019-05-19T07:37:07.992Z,20.59
2019-05-19T07:38:07.991Z,20.77
2019-05-19T07:39:07.991Z,21.03
2019-05-19T07:40:07.987Z,21.15
2019-05-19T07:41:07.987Z,21.19
2019-05-19T07:42:07.985Z,21.24
2019-05-19T07:43:07.999Z,21.18
2019-05-19T07:44:07.989Z,21.06
2019-05-19T07:45:07.984Z,20.88
2019-05-19T07:46:07.986Z,20.77
2019-05-19T07:47:07.984Z,20.79
2019-05-19T07:48:07.986Z,20.69
2019-05-19T07:49:07.992Z,20.51
2019-05-19T07:50:07.987Z,20.44
2019-05-19T07:51:07.986Z,20.51
2019-05-19T07:52:07.982Z,20.53
2019-05-19T07:53:07.993Z,20.49
2019-05-19T07:54:07.985Z,20.51
2019-05-19T07:55:07.980Z,20.39
2019-05-19T07:56:07.986Z,20.33
2019-05-19T07:57:07.980Z,20.25
2019-05-19T07:58:07.984Z,20.22
2019-05-19T07:59:08.188Z,20.28
2019-05-19T08:00:08.171Z,20.18
2019-05-19T08:01:07.975Z,20.11
2019-05-19T08:02:07.976Z,19.97
2019-05-19T08:03:07.985Z,19.91
2019-05-19T08:04:07.986Z,19.72
2019-05-19T08:05:07.974Z,19.48
2019-05-19T08:06:08.084Z,19.24
2019-05-19T08:07:07.971Z,19.09
2019-05-19T08:08:07.970Z,18.97
2019-05-19T08:09:07.989Z,18.88
2019-05-19T08:10:07.978Z,18.88
2019-05-19T08:11:07.972Z,18.92
2019-05-19T08:12:07.967Z,18.97
2019-05-19T08:13:07.971Z,19.14
2019-05-19T08:14:07.968Z,19.34
2019-05-19T08:15:07.982Z,19.56
2019-05-19T08:16:07.970Z,19.82
2019-05-19T08:17:07.967Z,20.10
2019-05-19T08:18:07.966Z,20.38
2019-05-19T08:19:07.967Z,20.62
2019-05-19T08:20:07.970Z,20.79
2019-05-19T08:21:07.963Z,20.78
2019-05-19T08:22:07.964Z,20.71
2019-05-19T08:23:07.974Z,20.65
2019-05-19T08:24:07.965Z,20.80
2019-05-19T08:25:07.969Z,20.92
2019-05-19T08:26:07.969Z,21.19
2019-05-19T08:27:07.964Z,21.38
2019-05-19T08:28:09.120Z,21.43
2019-05-19T08:29:07.960Z,21.63
2019-05-19T08:30:07.973Z,21.73
2019-05-19T08:31:07.963Z,21.90
2019-05-19T08:32:07.980Z,22.09
2019-05-19T08:33:07.957Z,22.13
2019-05-19T08:34:08.160Z,22.05
2019-05-19T08:35:07.967Z,21.83
2019-05-19T08:36:07.960Z,21.59
2019-05-19T08:37:07.956Z,21.46
2019-05-19T08:38:07.955Z,21.42
2019-05-19T08:39:07.961Z,21.30
2019-05-19T08:40:07.973Z,21.26
2019-05-19T08:41:07.966Z,21.29
2019-05-19T08:42:07.953Z,21.38
2019-05-19T08:43:07.957Z,21.59
2019-05-19T08:44:07.956Z,21.69
2019-05-19T08:45:07.952Z,21.72
2019-05-19T08:46:07.955Z,21.85
2019-05-19T08:47:07.953Z,21.92
2019-05-19T08:48:07.954Z,21.96
2019-05-19T08:49:07.953Z,21.92
2019-05-19T08:50:07.948Z,21.82
2019-05-19T08:51:07.952Z,21.79
2019-05-19T08:52:07.950Z,21.72
2019-05-19T08:53:07.965Z,21.62
2019-05-19T08:54:14.858Z,21.52
2019-05-19T08:55:07.953Z,21.56
2019-05-19T08:56:08.125Z,21.57
2019-05-19T08:57:08.779Z,21.59
2019-05-19T08:58:09.666Z,21.74
2019-05-19T08:59:08.072Z,21.92
2019-05-19T09:00:08.009Z,22.14
2019-05-19T09:01:08.080Z,22.32
2019-05-19T09:02:08.037Z,22.39
2019-05-19T09:03:08.108Z,22.30
2019-05-19T09:04:08.860Z,22.21
2019-05-19T09:05:07.982Z,22.30
2019-05-19T09:06:07.956Z,22.57
2019-05-19T09:07:07.939Z,22.75
2019-05-19T09:08:07.941Z,22.90
2019-05-19T09:09:07.941Z,23.00
2019-05-19T09:10:07.945Z,23.15
2019-05-19T09:11:07.942Z,23.29
2019-05-19T09:12:07.938Z,23.35
2019-05-19T09:13:07.937Z,23.41
2019-05-19T09:14:08.050Z,23.45
2019-05-19T09:15:07.935Z,23.35
2019-05-19T09:16:07.951Z,23.35
2019-05-19T09:17:07.933Z,23.37
2019-05-19T09:18:07.936Z,23.38
2019-05-19T09:19:08.223Z,23.41
2019-05-19T09:20:07.932Z,23.32
2019-05-19T09:21:07.941Z,23.24
2019-05-19T09:22:07.934Z,23.14
2019-05-19T09:23:07.934Z,22.98
2019-05-19T09:24:07.934Z,22.94
2019-05-19T09:25:07.936Z,22.93
2019-05-19T09:26:07.948Z,22.88
2019-05-19T09:27:07.930Z,22.61
2019-05-19T09:28:07.926Z,22.25
2019-05-19T09:29:07.929Z,22.14
2019-05-19T09:30:07.928Z,22.11
2019-05-19T09:31:07.927Z,22.10
2019-05-19T09:32:07.928Z,21.97
2019-05-19T09:33:07.925Z,21.80
2019-05-19T09:34:07.931Z,21.52
2019-05-19T09:35:07.926Z,21.30
2019-05-19T09:36:07.924Z,21.24
2019-05-19T09:37:07.929Z,21.21
2019-05-19T09:38:07.927Z,21.11
2019-05-19T09:39:07.921Z,21.14
2019-05-19T09:40:07.922Z,20.98
2019-05-19T09:41:07.925Z,20.88
2019-05-19T09:42:07.925Z,20.95
2019-05-19T09:43:07.925Z,20.91
2019-05-19T09:44:07.917Z,20.85
2019-05-19T09:45:07.921Z,20.89
2019-05-19T09:46:07.918Z,21.01
2019-05-19T09:47:07.930Z,21.04
2019-05-19T09:48:07.918Z,20.88
2019-05-19T09:49:07.925Z,20.77
2019-05-19T09:50:07.925Z,20.78
2019-05-19T09:51:07.920Z,20.79
2019-05-19T09:52:07.919Z,20.83
2019-05-19T09:53:07.915Z,20.87
2019-05-19T09:54:07.914Z,20.87
2019-05-19T09:55:07.915Z,20.88
2019-05-19T09:56:07.918Z,20.94
2019-05-19T09:57:07.927Z,20.97
2019-05-19T09:58:07.911Z,21.07
2019-05-19T09:59:07.911Z,21.21
2019-05-19T10:00:07.910Z,21.34
2019-05-19T10:01:07.910Z,21.27
2019-05-19T10:02:07.910Z,21.20
2019-05-19T10:03:07.914Z,21.27
2019-05-19T10:04:07.910Z,21.38
2019-05-19T10:05:07.909Z,21.47
2019-05-19T10:06:07.907Z,21.48
2019-05-19T10:07:08.456Z,21.49
2019-05-19T10:08:07.908Z,21.58
2019-05-19T10:09:07.906Z,21.69
2019-05-19T10:10:07.917Z,21.83
2019-05-19T10:11:07.906Z,21.95
2019-05-19T10:12:07.903Z,22.08
2019-05-19T10:13:07.907Z,22.21
2019-05-19T10:14:07.903Z,22.23
2019-05-19T10:15:07.906Z,22.23
2019-05-19T10:16:07.901Z,22.26
2019-05-19T10:17:07.901Z,22.30
2019-05-19T10:18:07.908Z,22.27
2019-05-19T10:19:07.901Z,22.29
2019-05-19T10:20:07.937Z,22.36
2019-05-19T10:21:07.899Z,22.48
2019-05-19T10:22:07.898Z,22.59
2019-05-19T10:23:07.906Z,22.60
2019-05-19T10:24:07.898Z,22.41
2019-05-19T10:25:20.867Z,22.25
2019-05-19T10:26:07.896Z,22.09
2019-05-19T10:27:07.895Z,22.03
2019-05-19T10:28:07.898Z,22.07
2019-05-19T10:29:07.892Z,22.00
2019-05-19T10:30:07.898Z,22.03
2019-05-19T10:31:07.897Z,22.14
2019-05-19T10:32:07.893Z,22.21
2019-05-19T10:33:07.907Z,22.28
2019-05-19T10:34:07.892Z,22.29
2019-05-19T10:35:07.890Z,22.28
2019-05-19T10:36:07.896Z,22.29
2019-05-19T10:37:07.889Z,22.34
2019-05-19T10:38:07.898Z,22.36
2019-05-19T10:39:07.893Z,22.32
2019-05-19T10:40:07.890Z,22.30
2019-05-19T10:41:07.888Z,22.27
2019-05-19T10:42:07.888Z,22.25
2019-05-19T10:43:07.905Z,22.27
2019-05-19T10:44:07.889Z,22.35
2019-05-19T10:45:07.912Z,22.40
2019-05-19T10:46:07.889Z,22.29
2019-05-19T10:47:07.885Z,22.30
2019-05-19T10:48:07.883Z,22.27
2019-05-19T10:49:07.885Z,22.15
2019-05-19T10:50:07.886Z,22.05
2019-05-19T10:51:07.883Z,22.05
2019-05-19T10:52:07.881Z,22.12
2019-05-19T10:53:07.881Z,22.29
2019-05-19T10:54:07.884Z,22.45
2019-05-19T10:55:07.883Z,22.48
2019-05-19T10:56:07.880Z,22.38
2019-05-19T10:57:07.881Z,22.32
2019-05-19T10:58:07.880Z,22.37
2019-05-19T10:59:07.910Z,22.34
2019-05-19T11:00:07.882Z,22.34
2019-05-19T11:01:07.877Z,22.41
2019-05-19T11:02:07.876Z,22.44
2019-05-19T11:03:07.885Z,22.30
2019-05-19T11:04:07.880Z,22.30
2019-05-19T11:05:11.015Z,22.27
2019-05-19T11:06:07.914Z,22.23
2019-05-19T11:07:07.874Z,22.16
2019-05-19T11:08:07.874Z,22.16
2019-05-19T11:09:07.965Z,22.29
2019-05-19T11:10:07.883Z,22.45
2019-05-19T11:11:07.881Z,22.51
2019-05-19T11:12:07.872Z,22.63
2019-05-19T11:13:07.871Z,22.67
2019-05-19T11:14:07.877Z,22.78
2019-05-19T11:15:07.871Z,22.87
2019-05-19T11:16:07.876Z,23.03
2019-05-19T11:17:07.870Z,23.03
2019-05-19T11:18:07.867Z,23.12
2019-05-19T11:19:07.875Z,23.32
2019-05-19T11:20:07.866Z,23.62
2019-05-19T11:21:07.866Z,23.92
2019-05-19T11:22:07.870Z,24.12
2019-05-19T11:23:07.868Z,24.12
2019-05-19T11:24:07.869Z,24.06
2019-05-19T11:25:07.864Z,24.19
2019-05-19T11:26:07.863Z,24.33
2019-05-19T11:27:10.040Z,24.28
2019-05-19T11:28:07.861Z,24.30
2019-05-19T11:29:07.872Z,24.28
2019-05-19T11:30:07.869Z,24.16
2019-05-19T11:31:07.861Z,24.11
2019-05-19T11:32:07.861Z,24.16
2019-05-19T11:33:07.863Z,24.26
2019-05-19T11:34:07.872Z,24.38
2019-05-19T11:35:07.864Z,24.48
2019-05-19T11:36:07.859Z,24.51
2019-05-19T11:37:07.864Z,24.61
2019-05-19T11:38:07.862Z,24.64
2019-05-19T11:39:07.871Z,24.63
2019-05-19T11:40:07.857Z,24.56
2019-05-19T11:41:07.854Z,24.63
2019-05-19T11:42:07.853Z,24.82
2019-05-19T11:43:07.870Z,25.03
2019-05-19T11:44:07.865Z,25.18
2019-05-19T11:45:07.861Z,25.29
2019-05-19T11:46:07.855Z,25.24
2019-05-19T11:47:07.855Z,25.12
2019-05-19T11:48:07.851Z,24.86
2019-05-19T11:49:07.851Z,24.62
2019-05-19T11:50:07.854Z,24.55
2019-05-19T11:51:07.859Z,24.66
2019-05-19T11:52:07.849Z,24.79
2019-05-19T11:53:07.850Z,24.82
2019-05-19T11:54:07.851Z,24.82
2019-05-19T11:55:07.850Z,24.88
2019-05-19T11:56:11.201Z,24.90
2019-05-19T11:57:07.849Z,24.84
2019-05-19T11:58:07.846Z,24.75
2019-05-19T11:59:07.846Z,24.69
2019-05-19T12:00:07.854Z,24.64
2019-05-19T12:01:07.847Z,24.65
2019-05-19T12:02:07.871Z,24.67
2019-05-19T12:03:07.844Z,24.61
2019-05-19T12:04:07.844Z,24.49
2019-05-19T12:05:07.853Z,24.36
2019-05-19T12:06:07.842Z,24.30
2019-05-19T12:07:07.843Z,24.18
2019-05-19T12:08:07.840Z,24.05
2019-05-19T12:09:07.840Z,23.95
2019-05-19T12:10:07.849Z,23.94
2019-05-19T12:11:07.842Z,23.96
2019-05-19T12:12:07.838Z,23.95
2019-05-19T12:13:07.842Z,23.98
2019-05-19T12:14:07.839Z,24.05
2019-05-19T12:15:07.847Z,24.04
2019-05-19T12:16:07.837Z,24.10
2019-05-19T12:17:08.006Z,24.18
2019-05-19T12:18:07.842Z,24.29
2019-05-19T12:19:07.836Z,24.43
2019-05-19T12:20:07.840Z,24.59
2019-05-19T12:21:07.830Z,24.67
2019-05-19T12:22:07.836Z,24.75
2019-05-19T12:23:07.838Z,24.93
2019-05-19T12:24:07.832Z,24.97
2019-05-19T12:25:07.835Z,24.84
2019-05-19T12:26:22.299Z,24.80
2019-05-19T12:27:07.832Z,24.84
2019-05-19T12:28:07.835Z,25.01
2019-05-19T12:29:07.830Z,25.17
2019-05-19T12:30:07.840Z,25.29
2019-05-19T12:31:09.097Z,25.33
2019-05-19T12:32:07.839Z,25.36
2019-05-19T12:33:07.978Z,25.35
2019-05-19T12:34:07.848Z,25.35
2019-05-19T12:35:07.839Z,25.32
2019-05-19T12:36:07.831Z,25.33
2019-05-19T12:37:07.829Z,25.40
2019-05-19T12:38:07.825Z,25.53
2019-05-19T12:39:07.857Z,25.67
2019-05-19T12:40:07.845Z,25.80
2019-05-19T12:41:07.823Z,25.84
2019-05-19T12:42:07.821Z,25.85
2019-05-19T12:43:07.822Z,25.87
2019-05-19T12:44:07.821Z,25.77
2019-05-19T12:45:07.843Z,25.65
2019-05-19T12:46:16.061Z,25.53
2019-05-19T12:47:07.819Z,25.50
2019-05-19T12:48:07.821Z,25.58
2019-05-19T12:49:07.821Z,25.69
2019-05-19T12:50:08.072Z,25.90
2019-05-19T12:51:07.822Z,26.09
2019-05-19T12:52:07.818Z,26.27